sensor_id;sensor_type;location;lat;lon;timestamp;pressure;altitude;pressure_sealevel;temperature;humidity
12757;BME280;31601;48.042;12.240;2023-01-27T00:02:12;96256.59;;;1.55;69.78
12757;BME280;31601;48.042;12.240;2023-01-27T00:04:40;96245.47;;;1.55;69.72
12757;BME280;31601;48.042;12.240;2023-01-27T00:07:06;96247.47;;;1.51;69.82
12757;BME280;31601;48.042;12.240;2023-01-27T00:09:33;96248.44;;;1.50;69.92
12757;BME280;31601;48.042;12.240;2023-01-27T00:11:59;96241.91;;;1.56;69.71
12757;BME280;31601;48.042;12.240;2023-01-27T00:14:43;96242.75;;;1.56;69.82
12757;BME280;31601;48.042;12.240;2023-01-27T00:17:09;96240.84;;;1.58;69.78
12757;BME280;31601;48.042;12.240;2023-01-27T00:19:36;96244.38;;;1.57;69.91
12757;BME280;31601;48.042;12.240;2023-01-27T00:22:04;96241.78;;;1.57;69.91
12757;BME280;31601;48.042;12.240;2023-01-27T00:25:02;96245.97;;;1.49;69.92
12757;BME280;31601;48.042;12.240;2023-01-27T00:27:29;96242.28;;;1.51;69.77
12757;BME280;31601;48.042;12.240;2023-01-27T00:29:55;96235.63;;;1.49;69.76
12757;BME280;31601;48.042;12.240;2023-01-27T00:32:22;96235.03;;;1.45;70.16
12757;BME280;31601;48.042;12.240;2023-01-27T00:35:06;96228.94;;;1.46;69.69
12757;BME280;31601;48.042;12.240;2023-01-27T00:37:34;96232.31;;;1.47;69.95
12757;BME280;31601;48.042;12.240;2023-01-27T00:40:01;96228.94;;;1.46;69.89
12757;BME280;31601;48.042;12.240;2023-01-27T00:42:27;96230.25;;;1.40;70.23
12757;BME280;31601;48.042;12.240;2023-01-27T00:44:54;96234.47;;;1.41;69.96
12757;BME280;31601;48.042;12.240;2023-01-27T00:47:38;96221.97;;;1.47;70.03
12757;BME280;31601;48.042;12.240;2023-01-27T00:50:06;96229.94;;;1.55;69.71
12757;BME280;31601;48.042;12.240;2023-01-27T00:52:32;96232.19;;;1.48;69.85
12757;BME280;31601;48.042;12.240;2023-01-27T00:55:00;96230.97;;;1.42;69.96
12757;BME280;31601;48.042;12.240;2023-01-27T00:57:26;96230.38;;;1.39;70.16
12757;BME280;31601;48.042;12.240;2023-01-27T00:59:53;96235.03;;;1.45;70.12
12757;BME280;31601;48.042;12.240;2023-01-27T01:02:19;96237.88;;;1.42;70.44
12757;BME280;31601;48.042;12.240;2023-01-27T01:04:45;96249.75;;;1.45;70.29
12757;BME280;31601;48.042;12.240;2023-01-27T01:07:12;96249.22;;;1.51;70.14
12757;BME280;31601;48.042;12.240;2023-01-27T01:09:38;96243.81;;;1.54;70.09
12757;BME280;31601;48.042;12.240;2023-01-27T01:12:06;96244.88;;;1.51;69.79
12757;BME280;31601;48.042;12.240;2023-01-27T01:14:32;96244.31;;;1.48;69.96
12757;BME280;31601;48.042;12.240;2023-01-27T01:16:59;96239.97;;;1.48;69.93
12757;BME280;31601;48.042;12.240;2023-01-27T01:19:25;96233.97;;;1.48;70.07
12757;BME280;31601;48.042;12.240;2023-01-27T01:21:51;96239.97;;;1.48;70.25
12757;BME280;31601;48.042;12.240;2023-01-27T01:24:18;96240.53;;;1.52;70.19
12757;BME280;31601;48.042;12.240;2023-01-27T01:26:45;96237.63;;;1.45;70.23
12757;BME280;31601;48.042;12.240;2023-01-27T01:29:12;96234.09;;;1.46;70.49
12757;BME280;31601;48.042;12.240;2023-01-27T01:31:39;96239.53;;;1.43;70.51
12757;BME280;31601;48.042;12.240;2023-01-27T01:34:05;96250.28;;;1.48;70.39
12757;BME280;31601;48.042;12.240;2023-01-27T01:36:32;96235.81;;;1.36;70.51
12757;BME280;31601;48.042;12.240;2023-01-27T01:38:59;96237.88;;;1.42;70.60
12757;BME280;31601;48.042;12.240;2023-01-27T01:41:25;96236.94;;;1.43;70.29
12757;BME280;31601;48.042;12.240;2023-01-27T01:43:52;96229.47;;;1.50;70.48
12757;BME280;31601;48.042;12.240;2023-01-27T01:46:20;96232.06;;;1.50;70.39
12757;BME280;31601;48.042;12.240;2023-01-27T01:48:48;96226.09;;;1.49;70.31
12757;BME280;31601;48.042;12.240;2023-01-27T01:51:18;96226.47;;;1.45;70.48
12757;BME280;31601;48.042;12.240;2023-01-27T01:53:50;96227.28;;;1.45;70.64
12757;BME280;31601;48.042;12.240;2023-01-27T01:56:21;96226.09;;;1.49;70.26
12757;BME280;31601;48.042;12.240;2023-01-27T01:58:49;96229.63;;;1.48;70.29
12757;BME280;31601;48.042;12.240;2023-01-27T02:01:17;96222.81;;;1.47;70.42
12757;BME280;31601;48.042;12.240;2023-01-27T02:03:47;96216.81;;;1.47;70.60
12757;BME280;31601;48.042;12.240;2023-01-27T02:06:15;96220.91;;;1.49;70.40
12757;BME280;31601;48.042;12.240;2023-01-27T02:08:44;96217.28;;;1.52;70.60
12757;BME280;31601;48.042;12.240;2023-01-27T02:11:11;96217.44;;;1.60;70.46
12757;BME280;31601;48.042;12.240;2023-01-27T02:13:38;96212.53;;;1.57;70.01
12757;BME280;31601;48.042;12.240;2023-01-27T02:16:06;96215.25;;;1.55;70.43
12757;BME280;31601;48.042;12.240;2023-01-27T02:18:33;96214.56;;;1.53;70.35
12757;BME280;31601;48.042;12.240;2023-01-27T02:21:01;96219.91;;;1.61;70.16
12757;BME280;31601;48.042;12.240;2023-01-27T02:23:45;96209.31;;;1.65;69.74
12757;BME280;31601;48.042;12.240;2023-01-27T02:26:17;96203.97;;;1.56;70.19
12757;BME280;31601;48.042;12.240;2023-01-27T02:28:52;96201.63;;;1.53;70.11
12757;BME280;31601;48.042;12.240;2023-01-27T02:31:18;96210.56;;;1.49;70.49
12757;BME280;31601;48.042;12.240;2023-01-27T02:33:45;96210.06;;;1.55;70.40
12757;BME280;31601;48.042;12.240;2023-01-27T02:36:13;96209.38;;;1.53;70.14
12757;BME280;31601;48.042;12.240;2023-01-27T02:38:43;96214.31;;;1.56;69.95
12757;BME280;31601;48.042;12.240;2023-01-27T02:41:14;96198.41;;;1.61;69.73
12757;BME280;31601;48.042;12.240;2023-01-27T02:43:42;96206.03;;;1.63;69.66
12757;BME280;31601;48.042;12.240;2023-01-27T02:46:09;96192.25;;;1.62;69.57
12757;BME280;31601;48.042;12.240;2023-01-27T02:48:35;96204.75;;;1.57;69.61
12757;BME280;31601;48.042;12.240;2023-01-27T02:51:02;96202.69;;;1.51;69.58
12757;BME280;31601;48.042;12.240;2023-01-27T02:53:29;96203.88;;;1.47;69.81
12757;BME280;31601;48.042;12.240;2023-01-27T02:55:55;96210.03;;;1.46;69.87
12757;BME280;31601;48.042;12.240;2023-01-27T02:58:21;96204.97;;;1.44;69.99
12757;BME280;31601;48.042;12.240;2023-01-27T03:00:49;96198.97;;;1.43;69.84
12757;BME280;31601;48.042;12.240;2023-01-27T03:03:16;96203.72;;;1.38;70.22
12757;BME280;31601;48.042;12.240;2023-01-27T03:05:43;96198.53;;;1.38;70.23
12757;BME280;31601;48.042;12.240;2023-01-27T03:08:10;96206.00;;;1.32;70.21
12757;BME280;31601;48.042;12.240;2023-01-27T03:10:36;96198.94;;;1.34;70.11
12757;BME280;31601;48.042;12.240;2023-01-27T03:13:04;96209.25;;;1.34;70.20
12757;BME280;31601;48.042;12.240;2023-01-27T03:15:30;96208.75;;;1.40;69.91
12757;BME280;31601;48.042;12.240;2023-01-27T03:18:16;96203.34;;;1.43;69.70
12757;BME280;31601;48.042;12.240;2023-01-27T03:20:44;96197.22;;;1.44;70.23
12757;BME280;31601;48.042;12.240;2023-01-27T03:23:12;96200.75;;;1.43;69.91
12757;BME280;31601;48.042;12.240;2023-01-27T03:25:42;96199.94;;;1.42;69.75
12757;BME280;31601;48.042;12.240;2023-01-27T03:28:10;96196.72;;;1.50;69.46
12757;BME280;31601;48.042;12.240;2023-01-27T03:30:37;96202.81;;;1.49;69.54
12757;BME280;31601;48.042;12.240;2023-01-27T03:33:04;96198.59;;;1.48;69.46
12757;BME280;31601;48.042;12.240;2023-01-27T03:35:33;96191.94;;;1.46;69.66
12757;BME280;31601;48.042;12.240;2023-01-27T03:38:04;96196.13;;;1.47;69.46
12757;BME280;31601;48.042;12.240;2023-01-27T03:40:48;96193.66;;;1.45;69.60
12757;BME280;31601;48.042;12.240;2023-01-27T03:43:32;96193.25;;;1.40;69.81
12757;BME280;31601;48.042;12.240;2023-01-27T03:46:16;96189.22;;;1.47;69.70
12757;BME280;31601;48.042;12.240;2023-01-27T03:48:44;96194.94;;;1.51;69.34
12757;BME280;31601;48.042;12.240;2023-01-27T03:51:16;96197.78;;;1.48;69.34
12757;BME280;31601;48.042;12.240;2023-01-27T03:53:42;96191.41;;;1.52;69.42
12757;BME280;31601;48.042;12.240;2023-01-27T03:56:09;96193.63;;;1.56;69.06
12757;BME280;31601;48.042;12.240;2023-01-27T03:58:36;96191.66;;;1.49;69.19
12757;BME280;31601;48.042;12.240;2023-01-27T04:01:05;96197.53;;;1.51;69.24
12757;BME280;31601;48.042;12.240;2023-01-27T04:03:34;96195.75;;;1.51;69.14
12757;BME280;31601;48.042;12.240;2023-01-27T04:06:21;96193.41;;;1.48;69.27
12757;BME280;31601;48.042;12.240;2023-01-27T04:09:07;96188.97;;;1.50;69.36
12757;BME280;31601;48.042;12.240;2023-01-27T04:11:34;96192.34;;;1.51;69.08
12757;BME280;31601;48.042;12.240;2023-01-27T04:14:18;96196.97;;;1.47;69.27
12757;BME280;31601;48.042;12.240;2023-01-27T04:16:45;96194.50;;;1.46;69.14
12757;BME280;31601;48.042;12.240;2023-01-27T04:19:15;96188.38;;;1.47;69.46
12757;BME280;31601;48.042;12.240;2023-01-27T04:21:43;96191.09;;;1.45;69.23
12757;BME280;31601;48.042;12.240;2023-01-27T04:24:11;96196.84;;;1.49;69.52
12757;BME280;31601;48.042;12.240;2023-01-27T04:26:50;96195.31;;;1.46;69.36
12757;BME280;31601;48.042;12.240;2023-01-27T04:29:18;96197.22;;;1.44;69.41
12757;BME280;31601;48.042;12.240;2023-01-27T04:31:45;96199.56;;;1.47;69.29
12757;BME280;31601;48.042;12.240;2023-01-27T04:34:12;96198.03;;;1.45;69.36
12757;BME280;31601;48.042;12.240;2023-01-27T04:36:39;96192.06;;;1.44;69.25
12757;BME280;31601;48.042;12.240;2023-01-27T04:39:07;96189.34;;;1.46;69.23
12757;BME280;31601;48.042;12.240;2023-01-27T04:41:34;96192.75;;;1.46;69.34
12757;BME280;31601;48.042;12.240;2023-01-27T04:44:02;96196.13;;;1.47;69.33
12757;BME280;31601;48.042;12.240;2023-01-27T04:46:29;96194.63;;;1.44;69.37
12757;BME280;31601;48.042;12.240;2023-01-27T04:48:56;96195.06;;;1.49;69.22
12757;BME280;31601;48.042;12.240;2023-01-27T04:51:22;96195.19;;;1.48;69.15
12757;BME280;31601;48.042;12.240;2023-01-27T04:53:49;96194.13;;;1.50;69.02
12757;BME280;31601;48.042;12.240;2023-01-27T04:56:23;96195.19;;;1.48;69.14
12757;BME280;31601;48.042;12.240;2023-01-27T04:58:50;96199.56;;;1.47;69.16
12757;BME280;31601;48.042;12.240;2023-01-27T05:01:17;96205.09;;;1.42;69.43
12757;BME280;31601;48.042;12.240;2023-01-27T05:03:43;96204.84;;;1.46;69.79
12757;BME280;31601;48.042;12.240;2023-01-27T05:06:11;96207.31;;;1.47;68.98
12757;BME280;31601;48.042;12.240;2023-01-27T05:08:38;96207.06;;;1.50;69.07
12757;BME280;31601;48.042;12.240;2023-01-27T05:11:04;96208.00;;;1.49;69.11
12757;BME280;31601;48.042;12.240;2023-01-27T05:13:32;96211.50;;;1.48;69.09
12757;BME280;31601;48.042;12.240;2023-01-27T05:16:06;96208.50;;;1.43;69.07
12757;BME280;31601;48.042;12.240;2023-01-27T05:18:33;96213.41;;;1.46;69.09
12757;BME280;31601;48.042;12.240;2023-01-27T05:20:59;96214.88;;;1.39;69.55
12757;BME280;31601;48.042;12.240;2023-01-27T05:23:26;96219.22;;;1.38;69.58
12757;BME280;31601;48.042;12.240;2023-01-27T05:26:08;96219.78;;;1.42;69.49
12757;BME280;31601;48.042;12.240;2023-01-27T05:28:38;96226.34;;;1.46;69.31
12757;BME280;31601;48.042;12.240;2023-01-27T05:31:06;96225.19;;;1.39;69.36
12757;BME280;31601;48.042;12.240;2023-01-27T05:33:34;96228.25;;;1.44;69.26
12757;BME280;31601;48.042;12.240;2023-01-27T05:36:02;96231.25;;;1.49;69.16
12757;BME280;31601;48.042;12.240;2023-01-27T05:38:31;96233.28;;;1.46;69.27
12757;BME280;31601;48.042;12.240;2023-01-27T05:40:59;96239.97;;;1.48;69.20
12757;BME280;31601;48.042;12.240;2023-01-27T05:43:27;96238.00;;;1.40;69.25
12757;BME280;31601;48.042;12.240;2023-01-27T05:46:02;96241.84;;;1.46;69.42
12757;BME280;31601;48.042;12.240;2023-01-27T05:48:29;96241.03;;;1.46;69.29
12757;BME280;31601;48.042;12.240;2023-01-27T05:50:57;96244.44;;;1.46;69.19
12757;BME280;31601;48.042;12.240;2023-01-27T05:53:24;96242.78;;;1.45;69.29
12757;BME280;31601;48.042;12.240;2023-01-27T05:55:51;96234.34;;;1.43;69.26
12757;BME280;31601;48.042;12.240;2023-01-27T05:58:18;96243.50;;;1.47;69.36
12757;BME280;31601;48.042;12.240;2023-01-27T06:00:44;96246.09;;;1.47;69.32
12757;BME280;31601;48.042;12.240;2023-01-27T06:03:14;96248.56;;;1.49;69.17
12757;BME280;31601;48.042;12.240;2023-01-27T06:05:51;96245.84;;;1.50;69.04
12757;BME280;31601;48.042;12.240;2023-01-27T06:08:18;96248.09;;;1.43;69.36
12757;BME280;31601;48.042;12.240;2023-01-27T06:10:45;96251.53;;;1.44;69.35
12757;BME280;31601;48.042;12.240;2023-01-27T06:13:11;96255.66;;;1.35;69.43
12757;BME280;31601;48.042;12.240;2023-01-27T06:15:42;96254.34;;;1.41;69.44
12757;BME280;31601;48.042;12.240;2023-01-27T06:18:09;96255.28;;;1.40;69.10
12757;BME280;31601;48.042;12.240;2023-01-27T06:20:37;96270.94;;;1.38;69.69
12757;BME280;31601;48.042;12.240;2023-01-27T06:23:04;96264.47;;;1.33;69.60
12757;BME280;31601;48.042;12.240;2023-01-27T06:25:34;96262.38;;;1.38;69.68
12757;BME280;31601;48.042;12.240;2023-01-27T06:28:01;96264.47;;;1.33;69.58
12757;BME280;31601;48.042;12.240;2023-01-27T06:30:27;96268.34;;;1.38;69.55
12757;BME280;31601;48.042;12.240;2023-01-27T06:32:54;96263.72;;;1.42;69.40
12757;BME280;31601;48.042;12.240;2023-01-27T06:35:21;96264.59;;;1.31;70.04
12757;BME280;31601;48.042;12.240;2023-01-27T06:37:50;96263.13;;;1.29;69.64
12757;BME280;31601;48.042;12.240;2023-01-27T06:40:17;96263.97;;;1.39;69.53
12757;BME280;31601;48.042;12.240;2023-01-27T06:42:43;96261.28;;;1.40;69.53
12757;BME280;31601;48.042;12.240;2023-01-27T06:45:10;96258.13;;;1.37;69.60
12757;BME280;31601;48.042;12.240;2023-01-27T06:47:37;96255.16;;;1.41;69.42
12757;BME280;31601;48.042;12.240;2023-01-27T06:50:05;96261.41;;;1.39;69.47
12757;BME280;31601;48.042;12.240;2023-01-27T06:52:31;96247.09;;;1.35;69.62
12757;BME280;31601;48.042;12.240;2023-01-27T06:54:59;96256.47;;;1.36;69.59
12757;BME280;31601;48.042;12.240;2023-01-27T06:57:26;96259.31;;;1.33;69.67
12757;BME280;31601;48.042;12.240;2023-01-27T06:59:53;96258.69;;;1.40;69.53
12757;BME280;31601;48.042;12.240;2023-01-27T07:02:19;96247.53;;;1.40;69.41
12757;BME280;31601;48.042;12.240;2023-01-27T07:04:46;96256.94;;;1.41;69.65
12757;BME280;31601;48.042;12.240;2023-01-27T07:07:12;96266.56;;;1.39;69.83
12757;BME280;31601;48.042;12.240;2023-01-27T07:09:42;96264.44;;;1.44;69.52
12757;BME280;31601;48.042;12.240;2023-01-27T07:12:09;96273.94;;;1.43;69.78
12757;BME280;31601;48.042;12.240;2023-01-27T07:14:36;96265.25;;;1.45;69.41
12757;BME280;31601;48.042;12.240;2023-01-27T07:17:02;96263.03;;;1.40;69.87
12757;BME280;31601;48.042;12.240;2023-01-27T07:19:29;96259.84;;;1.48;69.84
12757;BME280;31601;48.042;12.240;2023-01-27T07:21:55;96261.78;;;1.55;69.62
12757;BME280;31601;48.042;12.240;2023-01-27T07:24:22;96268.84;;;1.53;69.66
12757;BME280;31601;48.042;12.240;2023-01-27T07:26:48;96284.94;;;1.57;69.47
12757;BME280;31601;48.042;12.240;2023-01-27T07:29:16;96278.94;;;1.56;69.48
12757;BME280;31601;48.042;12.240;2023-01-27T07:31:42;96277.41;;;1.54;69.54
12757;BME280;31601;48.042;12.240;2023-01-27T07:34:09;96282.97;;;1.49;69.65
12757;BME280;31601;48.042;12.240;2023-01-27T07:36:35;96297.22;;;1.65;69.58
12757;BME280;31601;48.042;12.240;2023-01-27T07:39:02;96291.81;;;1.68;69.45
12757;BME280;31601;48.042;12.240;2023-01-27T07:41:29;96288.03;;;1.72;69.25
12757;BME280;31601;48.042;12.240;2023-01-27T07:43:55;96285.69;;;1.69;69.31
12757;BME280;31601;48.042;12.240;2023-01-27T07:46:23;96290.47;;;1.73;69.29
12757;BME280;31601;48.042;12.240;2023-01-27T07:48:49;96294.69;;;1.74;69.25
12757;BME280;31601;48.042;12.240;2023-01-27T07:51:16;96295.53;;;1.75;69.33
12757;BME280;31601;48.042;12.240;2023-01-27T07:53:43;96293.25;;;1.82;69.23
12757;BME280;31601;48.042;12.240;2023-01-27T07:56:09;96303.97;;;1.77;69.19
12757;BME280;31601;48.042;12.240;2023-01-27T07:58:37;96293.50;;;1.57;68.97
12757;BME280;31601;48.042;12.240;2023-01-27T08:01:04;96292.81;;;1.76;68.94
12757;BME280;31601;48.042;12.240;2023-01-27T08:03:33;96286.75;;;1.87;69.02
12757;BME280;31601;48.042;12.240;2023-01-27T08:06:03;96290.28;;;1.86;69.24
12757;BME280;31601;48.042;12.240;2023-01-27T08:08:30;96283.00;;;2.01;69.22
12757;BME280;31601;48.042;12.240;2023-01-27T08:10:58;96290.81;;;2.11;69.08
12757;BME280;31601;48.042;12.240;2023-01-27T08:13:24;96283.78;;;2.23;68.74
12757;BME280;31601;48.042;12.240;2023-01-27T08:15:55;96287.50;;;2.40;68.15
12757;BME280;31601;48.042;12.240;2023-01-27T08:18:22;96298.06;;;2.27;68.02
12757;BME280;31601;48.042;12.240;2023-01-27T08:20:50;96305.19;;;2.35;67.58
12757;BME280;31601;48.042;12.240;2023-01-27T08:23:18;96305.19;;;2.35;67.76
12757;BME280;31601;48.042;12.240;2023-01-27T08:25:48;96299.44;;;1.90;67.20
12757;BME280;31601;48.042;12.240;2023-01-27T08:28:15;96313.56;;;2.17;67.21
12757;BME280;31601;48.042;12.240;2023-01-27T08:30:41;96307.63;;;1.95;67.38
12757;BME280;31601;48.042;12.240;2023-01-27T08:33:08;96306.13;;;1.51;67.67
12757;BME280;31601;48.042;12.240;2023-01-27T08:35:35;96310.34;;;1.52;68.30
12757;BME280;31601;48.042;12.240;2023-01-27T08:38:04;96311.59;;;1.57;67.86
12757;BME280;31601;48.042;12.240;2023-01-27T08:40:31;96310.91;;;1.55;68.21
12757;BME280;31601;48.042;12.240;2023-01-27T08:42:57;96307.06;;;1.50;68.50
12757;BME280;31601;48.042;12.240;2023-01-27T08:45:25;96305.50;;;1.79;68.13
12757;BME280;31601;48.042;12.240;2023-01-27T08:47:52;96311.47;;;1.80;68.35
12757;BME280;31601;48.042;12.240;2023-01-27T08:50:18;96309.91;;;1.89;67.66
12757;BME280;31601;48.042;12.240;2023-01-27T08:52:45;96321.41;;;1.75;67.71
12757;BME280;31601;48.042;12.240;2023-01-27T08:55:17;96310.53;;;1.60;67.93
12757;BME280;31601;48.042;12.240;2023-01-27T08:57:44;96310.34;;;1.73;68.39
12757;BME280;31601;48.042;12.240;2023-01-27T09:00:11;96306.56;;;1.77;67.81
12757;BME280;31601;48.042;12.240;2023-01-27T09:02:38;96322.78;;;2.10;67.41
12757;BME280;31601;48.042;12.240;2023-01-27T09:05:05;96325.72;;;2.17;67.37
12757;BME280;31601;48.042;12.240;2023-01-27T09:07:32;96327.19;;;2.19;66.83
12757;BME280;31601;48.042;12.240;2023-01-27T09:09:58;96328.75;;;2.31;66.56
12757;BME280;31601;48.042;12.240;2023-01-27T09:12:26;96313.41;;;2.40;66.28
12757;BME280;31601;48.042;12.240;2023-01-27T09:14:52;96323.81;;;2.59;65.99
12757;BME280;31601;48.042;12.240;2023-01-27T09:17:22;96324.94;;;2.66;65.83
12757;BME280;31601;48.042;12.240;2023-01-27T09:19:48;96315.97;;;2.80;65.67
12757;BME280;31601;48.042;12.240;2023-01-27T09:22:15;96315.03;;;2.81;65.16
12757;BME280;31601;48.042;12.240;2023-01-27T09:24:41;96323.34;;;2.85;65.04
12757;BME280;31601;48.042;12.240;2023-01-27T09:27:08;96322.00;;;2.91;64.80
12757;BME280;31601;48.042;12.240;2023-01-27T09:29:36;96331.13;;;2.95;65.04
12757;BME280;31601;48.042;12.240;2023-01-27T09:32:04;96331.28;;;3.03;64.58
12757;BME280;31601;48.042;12.240;2023-01-27T09:34:30;96330.34;;;3.14;64.27
12757;BME280;31601;48.042;12.240;2023-01-27T09:37:02;96341.81;;;3.21;64.00
12757;BME280;31601;48.042;12.240;2023-01-27T09:39:31;96337.88;;;3.17;64.11
12757;BME280;31601;48.042;12.240;2023-01-27T09:42:15;96343.47;;;3.22;64.08
12757;BME280;31601;48.042;12.240;2023-01-27T09:44:59;96345.63;;;3.36;63.85
12757;BME280;31601;48.042;12.240;2023-01-27T09:47:55;96345.94;;;3.53;63.38
12757;BME280;31601;48.042;12.240;2023-01-27T09:50:35;96351.53;;;3.68;62.80
12757;BME280;31601;48.042;12.240;2023-01-27T09:53:35;96349.84;;;3.76;62.50
12757;BME280;31601;48.042;12.240;2023-01-27T09:56:09;96352.31;;;3.78;61.66
12757;BME280;31601;48.042;12.240;2023-01-27T09:58:52;96347.28;;;3.86;61.60
12757;BME280;31601;48.042;12.240;2023-01-27T10:01:29;96349.28;;;4.02;61.05
12757;BME280;31601;48.042;12.240;2023-01-27T10:04:17;96342.44;;;4.01;61.22
12757;BME280;31601;48.042;12.240;2023-01-27T10:06:59;96348.47;;;3.92;61.46
12757;BME280;31601;48.042;12.240;2023-01-27T10:09:54;96352.03;;;4.01;60.84
12757;BME280;31601;48.042;12.240;2023-01-27T10:12:42;96341.91;;;3.98;60.24
12757;BME280;31601;48.042;12.240;2023-01-27T10:15:20;96350.38;;;4.09;60.35
12757;BME280;31601;48.042;12.240;2023-01-27T10:18:00;96346.66;;;4.22;60.08
12757;BME280;31601;48.042;12.240;2023-01-27T10:20:34;96348.44;;;4.11;60.04
12757;BME280;31601;48.042;12.240;2023-01-27T10:23:13;96342.16;;;4.14;59.70
12757;BME280;31601;48.042;12.240;2023-01-27T10:25:52;96348.41;;;4.31;59.73
12757;BME280;31601;48.042;12.240;2023-01-27T10:28:27;96347.28;;;4.34;59.64
12757;BME280;31601;48.042;12.240;2023-01-27T10:30:58;96347.47;;;4.22;58.89
12757;BME280;31601;48.042;12.240;2023-01-27T10:33:37;96340.22;;;4.16;58.76
12757;BME280;31601;48.042;12.240;2023-01-27T10:36:15;96334.25;;;4.06;59.55
12757;BME280;31601;48.042;12.240;2023-01-27T10:38:47;96331.22;;;4.10;59.48
12757;BME280;31601;48.042;12.240;2023-01-27T10:41:25;96335.84;;;4.17;59.23
12757;BME280;31601;48.042;12.240;2023-01-27T10:44:04;96336.88;;;4.43;59.22
12757;BME280;31601;48.042;12.240;2023-01-27T10:46:41;96338.56;;;4.62;58.89
12757;BME280;31601;48.042;12.240;2023-01-27T10:49:17;96337.91;;;4.60;58.40
12757;BME280;31601;48.042;12.240;2023-01-27T10:51:51;96333.72;;;4.77;58.12
12757;BME280;31601;48.042;12.240;2023-01-27T10:54:23;96331.13;;;4.77;57.83
12757;BME280;31601;48.042;12.240;2023-01-27T10:56:56;96330.69;;;4.82;57.67
12757;BME280;31601;48.042;12.240;2023-01-27T10:59:29;96336.91;;;4.89;57.78
12757;BME280;31601;48.042;12.240;2023-01-27T11:02:01;96339.44;;;4.81;57.06
12757;BME280;31601;48.042;12.240;2023-01-27T11:04:35;96337.25;;;4.76;57.45
12757;BME280;31601;48.042;12.240;2023-01-27T11:07:05;96345.84;;;4.87;57.04
12757;BME280;31601;48.042;12.240;2023-01-27T11:09:34;96336.44;;;5.04;56.70
12757;BME280;31601;48.042;12.240;2023-01-27T11:12:04;96335.00;;;4.91;56.28
12757;BME280;31601;48.042;12.240;2023-01-27T11:14:44;96341.00;;;4.92;56.31
12757;BME280;31601;48.042;12.240;2023-01-27T11:17:14;96345.94;;;4.95;56.40
12757;BME280;31601;48.042;12.240;2023-01-27T11:19:57;96343.81;;;4.80;56.74
12757;BME280;31601;48.042;12.240;2023-01-27T11:22:27;96334.09;;;4.82;56.66
12757;BME280;31601;48.042;12.240;2023-01-27T11:25:04;96345.25;;;4.65;57.78
12757;BME280;31601;48.042;12.240;2023-01-27T11:27:45;96345.41;;;4.63;57.64
12757;BME280;31601;48.042;12.240;2023-01-27T11:30:22;96342.88;;;4.44;57.68
12757;BME280;31601;48.042;12.240;2023-01-27T11:32:59;96342.34;;;4.40;57.48
12757;BME280;31601;48.042;12.240;2023-01-27T11:35:28;96342.50;;;4.29;57.56
12757;BME280;31601;48.042;12.240;2023-01-27T11:37:55;96337.78;;;4.15;57.90
12757;BME280;31601;48.042;12.240;2023-01-27T11:40:26;96340.28;;;4.06;58.13
12757;BME280;31601;48.042;12.240;2023-01-27T11:42:56;96327.59;;;3.84;57.93
12757;BME280;31601;48.042;12.240;2023-01-27T11:45:24;96332.38;;;3.88;57.37
12757;BME280;31601;48.042;12.240;2023-01-27T11:47:55;96324.06;;;3.85;57.88
12757;BME280;31601;48.042;12.240;2023-01-27T11:50:26;96328.97;;;3.88;58.26
12757;BME280;31601;48.042;12.240;2023-01-27T11:52:58;96325.28;;;3.81;58.53
12757;BME280;31601;48.042;12.240;2023-01-27T11:55:32;96322.72;;;3.71;59.27
12757;BME280;31601;48.042;12.240;2023-01-27T11:58:12;96323.13;;;3.66;59.44
12757;BME280;31601;48.042;12.240;2023-01-27T12:00:43;96317.94;;;3.66;59.25
12757;BME280;31601;48.042;12.240;2023-01-27T12:03:17;96322.41;;;3.05;59.20
12757;BME280;31601;48.042;12.240;2023-01-27T12:05:47;96325.78;;;2.77;59.85
12757;BME280;31601;48.042;12.240;2023-01-27T12:08:37;96325.25;;;2.83;60.25
12757;BME280;31601;48.042;12.240;2023-01-27T12:11:16;96326.84;;;2.64;60.62
12757;BME280;31601;48.042;12.240;2023-01-27T12:13:47;96331.44;;;2.51;61.61
12757;BME280;31601;48.042;12.240;2023-01-27T12:16:14;96324.94;;;2.76;60.74
12757;BME280;31601;48.042;12.240;2023-01-27T12:18:47;96322.28;;;2.47;61.66
12757;BME280;31601;48.042;12.240;2023-01-27T12:21:14;96318.91;;;2.56;61.60
12757;BME280;31601;48.042;12.240;2023-01-27T12:23:49;96327.06;;;2.21;61.87
12757;BME280;31601;48.042;12.240;2023-01-27T12:26:29;96324.88;;;2.47;61.96
12757;BME280;31601;48.042;12.240;2023-01-27T12:28:57;96314.03;;;2.63;61.82
12757;BME280;31601;48.042;12.240;2023-01-27T12:31:26;96315.25;;;2.68;62.16
12757;BME280;31601;48.042;12.240;2023-01-27T12:33:57;96315.81;;;2.31;61.88
12757;BME280;31601;48.042;12.240;2023-01-27T12:36:25;96310.44;;;2.54;61.69
12757;BME280;31601;48.042;12.240;2023-01-27T12:38:55;96313.31;;;2.51;62.19
12757;BME280;31601;48.042;12.240;2023-01-27T12:41:26;96301.06;;;2.63;62.06
12757;BME280;31601;48.042;12.240;2023-01-27T12:43:56;96301.75;;;2.75;62.29
12757;BME280;31601;48.042;12.240;2023-01-27T12:46:25;96295.09;;;2.82;62.66
12757;BME280;31601;48.042;12.240;2023-01-27T12:48:54;96290.06;;;2.90;62.69
12757;BME280;31601;48.042;12.240;2023-01-27T12:51:36;96292.00;;;3.08;62.76
12757;BME280;31601;48.042;12.240;2023-01-27T12:54:15;96290.91;;;3.10;62.47
12757;BME280;31601;48.042;12.240;2023-01-27T12:56:42;96298.28;;;3.25;61.93
12757;BME280;31601;48.042;12.240;2023-01-27T12:59:12;96294.19;;;3.22;62.47
12757;BME280;31601;48.042;12.240;2023-01-27T13:01:40;96297.34;;;3.35;62.21
12757;BME280;31601;48.042;12.240;2023-01-27T13:04:13;96305.09;;;3.26;61.90
12757;BME280;31601;48.042;12.240;2023-01-27T13:06:43;96299.78;;;3.27;62.03
12757;BME280;31601;48.042;12.240;2023-01-27T13:09:24;96309.47;;;3.35;61.91
12757;BME280;31601;48.042;12.240;2023-01-27T13:11:54;96300.88;;;3.34;62.18
12757;BME280;31601;48.042;12.240;2023-01-27T13:14:21;96306.75;;;3.27;61.77
12757;BME280;31601;48.042;12.240;2023-01-27T13:16:51;96302.78;;;3.13;61.63